Terminal Aerodrome Forecast
Issued by NWS

Home | Current Version | Previous Version | Text Only | Print | Product List | Glossary On
Versions: 1 2 3 4 5 6 7 8 9 10 11 12 13 14 15 16 17 18 19 20 21 22 23 24 25 26 27 28 29 30 31 32 33 34 35 36
446
FTUS41 KOKX 010619 AAA
TAFGON
TAF AMD
KGON 010619Z 0106/0206 VRB03KT 3SM BR FEW250
      TEMPO 0106/0110 1SM BR
     FM011000 02004KT P6SM FEW250
     FM011400 06007KT P6SM FEW250
     FM011600 10009KT P6SM FEW250
     FM011800 16009KT P6SM FEW250
     FM012300 08006KT P6SM FEW250
     FM020400 06004KT P6SM FEW015=

USA.gov is the U.S. government's official web portal to all federal, state and local government web resources and services.